Time;durP1;ratioP1;P1;durP2;ratioP2;P2;SDS_P1;SDS_P2;PMS_P1;PMS_P2;Temp;Humidity;BMP_temperature;BMP_pressure;BME280_temperature;BME280_humidity;BME280_pressure;Samples;Min_cycle;Max_cycle;Signal;HPM_P1;HPM_P2
2022/08/13 00:01:12;;;;;;;9.17;8.77;;;22.60;11.40;;;;;;5057244;28;20467;-59
2022/08/13 00:03:38;;;;;;;9.60;9.20;;;22.80;11.30;;;;;;5057967;28;20438;-59
2022/08/13 00:06:08;;;;;;;9.43;9.03;;;22.80;11.20;;;;;;5057867;28;20452;-61
2022/08/13 00:08:35;;;;;;;10.30;9.70;;;22.90;11.10;;;;;;5057871;28;20266;-59
2022/08/13 00:11:01;;;;;;;9.30;8.80;;;23.00;11.00;;;;;;5057607;28;20479;-60
2022/08/13 00:13:27;;;;;;;8.83;8.53;;;23.00;10.90;;;;;;5057749;28;20413;-59
2022/08/13 00:15:53;;;;;;;9.07;8.70;;;23.10;10.80;;;;;;5057644;28;20429;-59
2022/08/13 00:18:20;;;;;;;9.37;9.07;;;23.10;10.80;;;;;;5057658;28;20206;-59
2022/08/13 00:20:53;;;;;;;9.30;8.90;;;23.00;10.90;;;;;;5057438;28;20286;-59
2022/08/13 00:23:20;;;;;;;8.70;8.37;;;23.00;10.80;;;;;;5057560;28;20902;-59
2022/08/13 00:25:48;;;;;;;9.33;8.93;;;23.10;11.10;;;;;;5057507;28;20465;-59
2022/08/13 00:28:23;;;;;;;9.70;9.30;;;23.10;11.00;;;;;;5057335;28;20432;-59
2022/08/13 00:30:49;;;;;;;9.87;9.47;;;23.10;11.00;;;;;;5057156;28;20417;-60
2022/08/13 00:33:19;;;;;;;9.00;8.60;;;23.10;11.10;;;;;;5057301;28;20425;-59
2022/08/13 00:35:47;;;;;;;10.00;9.40;;;23.10;11.30;;;;;;5057259;28;20929;-62
2022/08/13 00:38:20;;;;;;;9.47;9.07;;;23.00;11.10;;;;;;5057206;28;20422;-60
2022/08/13 00:40:58;;;;;;;9.17;8.77;;;23.00;11.10;;;;;;5057148;28;20512;-59
2022/08/13 00:43:25;;;;;;;9.10;8.70;;;23.00;11.30;;;;;;5057294;28;20931;-59
2022/08/13 00:45:52;;;;;;;9.07;8.50;;;23.00;11.30;;;;;;5057059;28;20774;-59
2022/08/13 00:51:05;;;;;;;9.67;9.27;;;23.00;11.50;;;;;;5075111;28;20412;-59
2022/08/13 00:53:32;;;;;;;9.63;9.23;;;23.00;11.60;;;;;;5057022;28;20421;-59
2022/08/13 00:55:59;;;;;;;10.03;9.63;;;23.00;11.60;;;;;;5056873;28;20425;-60
2022/08/13 00:58:27;;;;;;;9.73;9.33;;;23.00;11.70;;;;;;5056834;28;20464;-59
2022/08/13 01:00:56;;;;;;;9.10;8.80;;;22.90;11.70;;;;;;5056529;28;20464;-59
2022/08/13 01:03:23;;;;;;;9.57;9.17;;;22.80;11.80;;;;;;5056850;28;20452;-59
2022/08/13 01:05:49;;;;;;;8.93;8.60;;;22.80;12.00;;;;;;5056764;28;20405;-59
2022/08/13 01:08:19;;;;;;;10.20;9.37;;;22.70;12.10;;;;;;5056566;28;20428;-59
2022/08/13 01:10:47;;;;;;;9.23;8.83;;;22.60;12.20;;;;;;5056434;28;20425;-59
2022/08/13 01:13:14;;;;;;;9.73;9.20;;;22.60;12.30;;;;;;5056610;28;20437;-59
2022/08/13 01:15:41;;;;;;;9.13;8.67;;;22.60;12.50;;;;;;5056606;28;20414;-59
2022/08/13 01:18:12;;;;;;;9.73;9.33;;;22.60;12.40;;;;;;5056399;28;20834;-60
2022/08/13 01:20:46;;;;;;;9.57;9.07;;;22.60;12.40;;;;;;5056319;28;20465;-59
2022/08/13 01:23:14;;;;;;;8.87;8.57;;;22.60;12.50;;;;;;5056568;28;20460;-59
2022/08/13 01:25:41;;;;;;;9.03;8.73;;;22.60;12.70;;;;;;5056487;28;20428;-59
2022/08/13 01:28:08;;;;;;;10.40;9.73;;;22.60;12.70;;;;;;5056286;28;20418;-59
2022/08/13 01:31:29;;;;;;;9.60;9.20;;;22.60;12.70;;;;;;5056259;28;20830;-60
2022/08/13 01:33:59;;;;;;;9.37;8.70;;;22.60;12.60;;;;;;5072866;28;20421;-59
2022/08/13 01:36:26;;;;;;;9.00;8.60;;;22.60;12.80;;;;;;5056266;28;20417;-59
2022/08/13 01:38:52;;;;;;;9.13;8.73;;;22.60;12.80;;;;;;5056009;28;20623;-59
2022/08/13 01:41:18;;;;;;;9.83;9.20;;;22.60;12.90;;;;;;5055892;28;20823;-59
2022/08/13 01:43:44;;;;;;;9.40;8.80;;;22.60;13.00;;;;;;5056011;28;20176;-60
2022/08/13 01:46:11;;;;;;;9.70;9.20;;;22.60;12.90;;;;;;5056046;28;20647;-59
2022/08/13 01:51:33;;;;;;;9.67;9.27;;;22.60;13.00;;;;;;5074060;28;20814;-59
2022/08/13 01:54:00;;;;;;;9.50;9.10;;;22.50;13.10;;;;;;5055713;28;20416;-59
2022/08/13 01:56:28;;;;;;;9.60;9.20;;;22.50;13.10;;;;;;5055913;28;20811;-59
2022/08/13 01:58:57;;;;;;;9.80;9.40;;;22.50;13.10;;;;;;5055597;28;20416;-59
2022/08/13 02:01:25;;;;;;;8.90;8.60;;;22.40;13.30;;;;;;5055535;28;20548;-60
2022/08/13 02:03:56;;;;;;;9.47;9.07;;;22.00;14.50;;;;;;5055626;28;20477;-59
2022/08/13 02:06:27;;;;;;;10.07;9.50;;;21.70;14.50;;;;;;5055789;28;20449;-61
2022/08/13 02:08:59;;;;;;;9.07;8.63;;;21.70;14.70;;;;;;5055555;28;20519;-59
2022/08/13 02:11:26;;;;;;;9.50;9.10;;;21.80;14.30;;;;;;5055372;28;20425;-59
2022/08/13 02:13:54;;;;;;;9.97;9.30;;;21.80;14.30;;;;;;5055297;28;20422;-59
2022/08/13 02:16:20;;;;;;;9.60;9.20;;;21.90;14.40;;;;;;5055291;28;20423;-59
2022/08/13 02:18:46;;;;;;;9.60;8.93;;;22.00;14.50;;;;;;5055385;28;20413;-59
2022/08/13 02:21:12;;;;;;;9.63;9.20;;;22.00;14.50;;;;;;5054983;28;20458;-60
2022/08/13 02:23:38;;;;;;;9.83;9.43;;;22.00;14.50;;;;;;5055023;28;20639;-59
2022/08/13 02:26:05;;;;;;;10.23;9.53;;;21.80;14.80;;;;;;5055143;28;20418;-59
2022/08/13 02:28:39;;;;;;;10.20;9.60;;;21.60;15.30;;;;;;5055272;28;20906;-60
2022/08/13 02:31:06;;;;;;;10.27;9.30;;;21.40;15.60;;;;;;5054934;28;20418;-59
2022/08/13 02:33:37;;;;;;;10.83;9.90;;;21.20;15.90;;;;;;5055129;28;20405;-59
2022/08/13 02:36:09;;;;;;;9.73;9.23;;;21.20;16.20;;;;;;5054994;28;20433;-60
2022/08/13 02:38:35;;;;;;;9.50;9.00;;;21.10;16.40;;;;;;5071684;28;20417;-59
2022/08/13 02:43:46;;;;;;;9.70;9.20;;;21.10;16.20;;;;;;5073505;28;20689;-59
2022/08/13 02:46:13;;;;;;;9.80;9.37;;;21.20;15.90;;;;;;5055219;28;20909;-59
2022/08/13 02:48:40;;;;;;;9.53;9.10;;;21.40;15.70;;;;;;5055062;28;20807;-59
2022/08/13 02:51:05;;;;;;;9.40;8.97;;;21.50;15.50;;;;;;5054477;28;20455;-59
2022/08/13 02:53:32;;;;;;;9.07;8.73;;;21.60;15.30;;;;;;5055004;28;20441;-59
2022/08/13 02:55:59;;;;;;;8.73;8.43;;;21.70;15.20;;;;;;5054578;28;20203;-60
2022/08/13 02:58:26;;;;;;;9.50;9.10;;;21.70;15.30;;;;;;5054712;28;20432;-59
2022/08/13 03:00:53;;;;;;;9.67;9.20;;;21.70;15.20;;;;;;5054309;28;20487;-59
2022/08/13 03:03:19;;;;;;;9.33;9.00;;;21.80;15.30;;;;;;5054637;28;20741;-60
2022/08/13 03:05:45;;;;;;;9.50;9.20;;;21.80;15.20;;;;;;5054471;28;20470;-59
2022/08/13 03:08:12;;;;;;;9.17;8.60;;;21.80;15.20;;;;;;5054433;28;20929;-59
2022/08/13 03:10:40;;;;;;;9.70;9.30;;;21.80;15.20;;;;;;5054390;28;20886;-58
2022/08/13 03:13:17;;;;;;;9.70;9.30;;;21.90;15.10;;;;;;5072587;28;20410;-59
2022/08/13 03:15:46;;;;;;;9.93;9.43;;;21.80;15.20;;;;;;5052969;28;20419;-57
2022/08/13 03:18:12;;;;;;;9.10;8.80;;;21.80;15.30;;;;;;5052446;28;20442;-58
2022/08/13 03:20:39;;;;;;;9.30;9.00;;;21.80;15.30;;;;;;5052405;28;21042;-57
2022/08/13 03:23:07;;;;;;;9.13;8.83;;;21.80;15.30;;;;;;5052874;28;20465;-57
2022/08/13 03:25:34;;;;;;;10.33;9.63;;;21.80;15.40;;;;;;5052422;28;20413;-57
2022/08/13 03:28:01;;;;;;;10.20;9.70;;;21.80;15.30;;;;;;5052761;28;20410;-57
2022/08/13 03:30:27;;;;;;;9.07;8.77;;;21.80;15.30;;;;;;5052852;28;20559;-57
2022/08/13 03:32:54;;;;;;;9.73;9.33;;;21.80;15.30;;;;;;5054105;28;20414;-58
2022/08/13 03:35:22;;;;;;;9.20;8.70;;;21.70;15.30;;;;;;5053096;28;20508;-58
2022/08/13 03:37:53;;;;;;;9.70;9.30;;;21.70;15.30;;;;;;5054032;28;20425;-57
2022/08/13 03:40:21;;;;;;;9.07;8.77;;;21.70;15.90;;;;;;5053702;28;20469;-58
2022/08/13 03:42:48;;;;;;;9.97;9.20;;;21.70;15.40;;;;;;5053963;28;20422;-58
2022/08/13 03:45:16;;;;;;;9.10;8.80;;;21.70;15.30;;;;;;5053839;28;20445;-57
2022/08/13 03:47:42;;;;;;;8.83;8.53;;;21.60;15.30;;;;;;5053968;28;20491;-57
2022/08/13 03:50:10;;;;;;;9.50;9.10;;;21.60;15.40;;;;;;5053410;28;20668;-57
2022/08/13 03:52:36;;;;;;;9.50;9.10;;;21.60;15.40;;;;;;5053926;28;20418;-57
2022/08/13 03:55:08;;;;;;;9.00;8.70;;;21.60;15.40;;;;;;5053889;28;20476;-58
2022/08/13 03:57:33;;;;;;;9.87;9.27;;;21.60;15.60;;;;;;5053915;28;20421;-58
2022/08/13 03:59:59;;;;;;;9.67;9.13;;;21.50;15.60;;;;;;5053433;28;20457;-58
2022/08/13 04:02:25;;;;;;;9.50;9.10;;;21.50;15.70;;;;;;5053804;28;20186;-58
2022/08/13 04:04:51;;;;;;;9.77;9.40;;;21.50;15.80;;;;;;5053601;28;20203;-58
2022/08/13 04:07:18;;;;;;;10.40;10.00;;;21.40;15.90;;;;;;5053686;28;20413;-57
2022/08/13 04:09:45;;;;;;;9.60;9.23;;;21.30;15.90;;;;;;5053664;28;20190;-58
2022/08/13 04:12:12;;;;;;;9.80;9.40;;;21.30;16.10;;;;;;5053351;28;20414;-58
2022/08/13 04:14:44;;;;;;;9.83;9.43;;;21.20;16.20;;;;;;5053836;28;20474;-58
2022/08/13 04:17:10;;;;;;;9.93;9.53;;;21.20;16.40;;;;;;5053438;28;20440;-58
2022/08/13 04:19:40;;;;;;;9.70;9.30;;;21.10;16.40;;;;;;5053731;28;20417;-58
2022/08/13 04:22:07;;;;;;;9.77;9.40;;;21.10;16.50;;;;;;5053258;28;20437;-58
2022/08/13 04:24:34;;;;;;;9.70;9.30;;;21.00;16.80;;;;;;5053630;28;20410;-58
2022/08/13 04:27:04;;;;;;;10.00;9.60;;;21.00;16.90;;;;;;5053454;28;20834;-58
2022/08/13 04:29:30;;;;;;;9.97;9.50;;;21.00;16.70;;;;;;5053719;28;20409;-60
2022/08/13 04:31:56;;;;;;;9.87;9.57;;;21.00;16.70;;;;;;5053111;28;20417;-58
2022/08/13 04:34:25;;;;;;;9.60;9.30;;;21.10;16.60;;;;;;5053442;28;20428;-59
2022/08/13 04:36:51;;;;;;;9.87;9.57;;;21.00;16.60;;;;;;5053315;28;20412;-58
2022/08/13 04:39:17;;;;;;;9.97;9.57;;;21.10;16.70;;;;;;5053448;28;20420;-58
2022/08/13 04:41:43;;;;;;;10.50;10.00;;;21.10;16.50;;;;;;5053066;28;20548;-59
2022/08/13 04:44:08;;;;;;;9.60;9.20;;;21.10;16.60;;;;;;5053319;28;20284;-58
2022/08/13 04:46:34;;;;;;;10.20;9.90;;;21.20;16.50;;;;;;5055699;28;20186;-59
2022/08/13 04:49:00;;;;;;;10.00;9.60;;;21.20;16.50;;;;;;5057166;28;20176;-58
2022/08/13 04:51:26;;;;;;;9.30;9.00;;;21.10;16.50;;;;;;5056816;28;20568;-58
2022/08/13 04:53:52;;;;;;;10.37;9.97;;;21.10;16.60;;;;;;5056977;28;20479;-58
2022/08/13 04:56:18;;;;;;;10.47;9.67;;;21.20;16.70;;;;;;5056917;28;20831;-58
2022/08/13 04:58:45;;;;;;;10.20;9.80;;;21.10;16.70;;;;;;5056981;28;20175;-58
